sensor_id;sensor_type;location;lat;lon;timestamp;P1;durP1;ratioP1;P2;durP2;ratioP2
3274;SDS011;1649;53.672;10.064;2022-09-30T00:00:18;15.73;;;10.87;;
3274;SDS011;1649;53.672;10.064;2022-09-30T00:02:45;16.37;;;11.40;;
3274;SDS011;1649;53.672;10.064;2022-09-30T00:05:10;14.20;;;10.50;;
3274;SDS011;1649;53.672;10.064;2022-09-30T00:07:36;15.80;;;10.33;;
3274;SDS011;1649;53.672;10.064;2022-09-30T00:10:01;14.83;;;10.57;;
3274;SDS011;1649;53.672;10.064;2022-09-30T00:12:27;15.70;;;11.20;;
3274;SDS011;1649;53.672;10.064;2022-09-30T00:14:53;16.40;;;12.50;;
3274;SDS011;1649;53.672;10.064;2022-09-30T00:17:18;16.97;;;11.73;;
3274;SDS011;1649;53.672;10.064;2022-09-30T00:19:44;16.60;;;11.07;;
3274;SDS011;1649;53.672;10.064;2022-09-30T00:22:11;18.60;;;13.33;;
3274;SDS011;1649;53.672;10.064;2022-09-30T00:24:36;17.00;;;12.43;;
3274;SDS011;1649;53.672;10.064;2022-09-30T00:27:02;16.03;;;11.73;;
3274;SDS011;1649;53.672;10.064;2022-09-30T00:29:27;16.90;;;12.73;;
3274;SDS011;1649;53.672;10.064;2022-09-30T00:31:53;20.40;;;13.30;;
3274;SDS011;1649;53.672;10.064;2022-09-30T00:34:18;16.40;;;11.00;;
3274;SDS011;1649;53.672;10.064;2022-09-30T00:39:13;15.73;;;12.27;;
3274;SDS011;1649;53.672;10.064;2022-09-30T00:41:42;19.20;;;12.90;;
3274;SDS011;1649;53.672;10.064;2022-09-30T00:44:40;17.97;;;11.67;;
3274;SDS011;1649;53.672;10.064;2022-09-30T00:47:29;14.87;;;10.53;;
3274;SDS011;1649;53.672;10.064;2022-09-30T00:49:57;15.87;;;11.20;;
3274;SDS011;1649;53.672;10.064;2022-09-30T00:52:26;21.57;;;12.90;;
3274;SDS011;1649;53.672;10.064;2022-09-30T00:54:52;18.00;;;12.80;;
3274;SDS011;1649;53.672;10.064;2022-09-30T00:57:18;16.80;;;12.17;;
3274;SDS011;1649;53.672;10.064;2022-09-30T00:59:45;15.83;;;11.47;;
3274;SDS011;1649;53.672;10.064;2022-09-30T01:02:13;18.73;;;12.40;;
3274;SDS011;1649;53.672;10.064;2022-09-30T01:04:39;18.90;;;13.80;;
3274;SDS011;1649;53.672;10.064;2022-09-30T01:07:07;19.10;;;14.57;;
3274;SDS011;1649;53.672;10.064;2022-09-30T01:09:34;19.43;;;13.23;;
3274;SDS011;1649;53.672;10.064;2022-09-30T01:12:04;18.40;;;13.33;;
3274;SDS011;1649;53.672;10.064;2022-09-30T01:14:33;21.27;;;14.57;;
3274;SDS011;1649;53.672;10.064;2022-09-30T01:17:12;20.40;;;14.53;;
3274;SDS011;1649;53.672;10.064;2022-09-30T01:19:51;19.57;;;14.23;;
3274;SDS011;1649;53.672;10.064;2022-09-30T01:31:45;24.00;;;12.43;;
3274;SDS011;1649;53.672;10.064;2022-09-30T01:34:26;18.40;;;13.00;;
3274;SDS011;1649;53.672;10.064;2022-09-30T01:45:13;19.10;;;12.90;;
3274;SDS011;1649;53.672;10.064;2022-09-30T01:47:54;18.47;;;11.70;;
3274;SDS011;1649;53.672;10.064;2022-09-30T01:56:10;21.03;;;14.73;;
3274;SDS011;1649;53.672;10.064;2022-09-30T02:01:24;21.83;;;15.13;;
3274;SDS011;1649;53.672;10.064;2022-09-30T02:03:55;26.23;;;17.53;;
3274;SDS011;1649;53.672;10.064;2022-09-30T02:06:27;20.47;;;14.73;;
3274;SDS011;1649;53.672;10.064;2022-09-30T02:09:03;21.70;;;15.90;;
3274;SDS011;1649;53.672;10.064;2022-09-30T02:11:35;24.53;;;14.80;;
3274;SDS011;1649;53.672;10.064;2022-09-30T02:14:12;28.00;;;19.27;;
3274;SDS011;1649;53.672;10.064;2022-09-30T02:16:54;22.07;;;15.47;;
3274;SDS011;1649;53.672;10.064;2022-09-30T02:19:44;25.97;;;14.90;;
3274;SDS011;1649;53.672;10.064;2022-09-30T02:22:34;22.37;;;16.60;;
3274;SDS011;1649;53.672;10.064;2022-09-30T02:25:09;28.87;;;18.70;;
3274;SDS011;1649;53.672;10.064;2022-09-30T02:27:43;28.20;;;19.00;;
3274;SDS011;1649;53.672;10.064;2022-09-30T02:30:13;27.10;;;19.60;;
3274;SDS011;1649;53.672;10.064;2022-09-30T02:35:14;23.07;;;15.70;;
3274;SDS011;1649;53.672;10.064;2022-09-30T02:37:50;28.30;;;18.47;;
3274;SDS011;1649;53.672;10.064;2022-09-30T02:40:25;25.93;;;16.37;;
3274;SDS011;1649;53.672;10.064;2022-09-30T02:42:56;25.07;;;18.20;;
3274;SDS011;1649;53.672;10.064;2022-09-30T02:45:22;26.60;;;17.20;;
3274;SDS011;1649;53.672;10.064;2022-09-30T02:50:52;29.87;;;20.47;;
3274;SDS011;1649;53.672;10.064;2022-09-30T02:53:26;26.37;;;18.73;;
3274;SDS011;1649;53.672;10.064;2022-09-30T02:56:08;26.37;;;18.40;;
3274;SDS011;1649;53.672;10.064;2022-09-30T02:58:41;27.30;;;18.97;;
3274;SDS011;1649;53.672;10.064;2022-09-30T03:01:09;28.83;;;19.80;;
3274;SDS011;1649;53.672;10.064;2022-09-30T03:06:14;24.90;;;17.33;;
3274;SDS011;1649;53.672;10.064;2022-09-30T03:08:39;26.93;;;17.67;;
3274;SDS011;1649;53.672;10.064;2022-09-30T03:11:05;25.73;;;17.23;;
3274;SDS011;1649;53.672;10.064;2022-09-30T03:13:41;24.00;;;17.87;;
3274;SDS011;1649;53.672;10.064;2022-09-30T03:16:28;25.57;;;16.53;;
3274;SDS011;1649;53.672;10.064;2022-09-30T03:22:21;24.57;;;17.57;;
3274;SDS011;1649;53.672;10.064;2022-09-30T03:30:32;30.17;;;18.80;;
3274;SDS011;1649;53.672;10.064;2022-09-30T03:33:14;26.47;;;18.77;;
3274;SDS011;1649;53.672;10.064;2022-09-30T03:36:02;30.97;;;17.30;;
3274;SDS011;1649;53.672;10.064;2022-09-30T03:41:23;28.90;;;20.00;;
3274;SDS011;1649;53.672;10.064;2022-09-30T03:43:57;28.90;;;19.33;;
3274;SDS011;1649;53.672;10.064;2022-09-30T03:46:41;31.43;;;19.47;;
3274;SDS011;1649;53.672;10.064;2022-09-30T03:49:12;32.00;;;20.50;;
3274;SDS011;1649;53.672;10.064;2022-09-30T03:51:42;26.70;;;18.53;;
3274;SDS011;1649;53.672;10.064;2022-09-30T03:54:08;29.63;;;19.93;;
3274;SDS011;1649;53.672;10.064;2022-09-30T03:56:36;31.27;;;20.17;;
3274;SDS011;1649;53.672;10.064;2022-09-30T03:59:07;29.60;;;20.70;;
3274;SDS011;1649;53.672;10.064;2022-09-30T04:01:41;31.87;;;19.37;;
3274;SDS011;1649;53.672;10.064;2022-09-30T04:04:06;29.83;;;21.10;;
3274;SDS011;1649;53.672;10.064;2022-09-30T04:06:32;29.67;;;20.67;;
3274;SDS011;1649;53.672;10.064;2022-09-30T04:08:58;32.20;;;20.23;;
3274;SDS011;1649;53.672;10.064;2022-09-30T04:11:24;30.40;;;20.30;;
3274;SDS011;1649;53.672;10.064;2022-09-30T04:13:49;29.50;;;19.33;;
3274;SDS011;1649;53.672;10.064;2022-09-30T04:16:14;28.40;;;18.23;;
3274;SDS011;1649;53.672;10.064;2022-09-30T04:18:40;27.77;;;19.40;;
3274;SDS011;1649;53.672;10.064;2022-09-30T04:21:06;31.63;;;19.53;;
3274;SDS011;1649;53.672;10.064;2022-09-30T04:23:37;29.77;;;19.73;;
3274;SDS011;1649;53.672;10.064;2022-09-30T04:26:04;28.87;;;19.57;;
3274;SDS011;1649;53.672;10.064;2022-09-30T04:28:31;27.77;;;18.60;;
3274;SDS011;1649;53.672;10.064;2022-09-30T04:30:58;27.17;;;18.60;;
3274;SDS011;1649;53.672;10.064;2022-09-30T04:33:24;28.77;;;20.77;;
3274;SDS011;1649;53.672;10.064;2022-09-30T04:35:52;29.50;;;20.53;;
3274;SDS011;1649;53.672;10.064;2022-09-30T04:38:21;33.40;;;21.73;;
3274;SDS011;1649;53.672;10.064;2022-09-30T04:40:48;31.50;;;21.30;;
3274;SDS011;1649;53.672;10.064;2022-09-30T04:43:15;36.43;;;20.97;;
3274;SDS011;1649;53.672;10.064;2022-09-30T04:45:42;29.90;;;20.27;;
3274;SDS011;1649;53.672;10.064;2022-09-30T04:48:09;32.37;;;20.77;;
3274;SDS011;1649;53.672;10.064;2022-09-30T04:50:35;28.97;;;20.57;;
3274;SDS011;1649;53.672;10.064;2022-09-30T04:53:00;33.03;;;20.97;;
3274;SDS011;1649;53.672;10.064;2022-09-30T04:55:27;28.37;;;18.03;;
3274;SDS011;1649;53.672;10.064;2022-09-30T04:57:53;29.43;;;19.07;;
3274;SDS011;1649;53.672;10.064;2022-09-30T05:00:19;29.77;;;20.50;;
3274;SDS011;1649;53.672;10.064;2022-09-30T05:02:44;32.37;;;22.20;;
3274;SDS011;1649;53.672;10.064;2022-09-30T05:05:10;31.20;;;22.10;;
3274;SDS011;1649;53.672;10.064;2022-09-30T05:07:36;34.43;;;21.80;;
3274;SDS011;1649;53.672;10.064;2022-09-30T05:10:01;34.77;;;24.67;;
3274;SDS011;1649;53.672;10.064;2022-09-30T05:12:27;33.30;;;21.37;;
3274;SDS011;1649;53.672;10.064;2022-09-30T05:14:52;31.80;;;21.30;;
3274;SDS011;1649;53.672;10.064;2022-09-30T05:17:18;33.77;;;21.63;;
3274;SDS011;1649;53.672;10.064;2022-09-30T05:19:43;32.03;;;21.47;;
3274;SDS011;1649;53.672;10.064;2022-09-30T05:22:09;34.80;;;23.60;;
3274;SDS011;1649;53.672;10.064;2022-09-30T05:24:34;32.80;;;21.37;;
3274;SDS011;1649;53.672;10.064;2022-09-30T05:27:00;37.53;;;23.40;;
3274;SDS011;1649;53.672;10.064;2022-09-30T05:29:26;30.17;;;20.77;;
3274;SDS011;1649;53.672;10.064;2022-09-30T05:31:51;33.10;;;21.50;;
3274;SDS011;1649;53.672;10.064;2022-09-30T05:34:17;31.87;;;21.87;;
3274;SDS011;1649;53.672;10.064;2022-09-30T05:36:42;31.20;;;20.67;;
3274;SDS011;1649;53.672;10.064;2022-09-30T05:39:08;29.80;;;20.60;;
3274;SDS011;1649;53.672;10.064;2022-09-30T05:41:34;35.37;;;21.60;;
3274;SDS011;1649;53.672;10.064;2022-09-30T05:44:00;34.30;;;21.80;;
3274;SDS011;1649;53.672;10.064;2022-09-30T05:46:26;32.03;;;22.40;;
3274;SDS011;1649;53.672;10.064;2022-09-30T05:48:52;32.37;;;22.80;;
3274;SDS011;1649;53.672;10.064;2022-09-30T05:51:18;28.70;;;18.70;;
3274;SDS011;1649;53.672;10.064;2022-09-30T05:53:44;31.57;;;21.43;;
3274;SDS011;1649;53.672;10.064;2022-09-30T05:56:10;32.00;;;21.50;;
3274;SDS011;1649;53.672;10.064;2022-09-30T05:58:36;43.70;;;27.67;;
3274;SDS011;1649;53.672;10.064;2022-09-30T06:01:04;47.50;;;29.97;;
3274;SDS011;1649;53.672;10.064;2022-09-30T06:03:32;46.17;;;29.57;;
3274;SDS011;1649;53.672;10.064;2022-09-30T06:05:58;35.27;;;25.97;;
3274;SDS011;1649;53.672;10.064;2022-09-30T06:08:24;38.57;;;25.53;;
3274;SDS011;1649;53.672;10.064;2022-09-30T06:10:49;38.30;;;25.93;;
3274;SDS011;1649;53.672;10.064;2022-09-30T06:13:15;41.60;;;25.23;;
3274;SDS011;1649;53.672;10.064;2022-09-30T06:15:53;35.33;;;24.03;;
3274;SDS011;1649;53.672;10.064;2022-09-30T06:18:20;37.63;;;24.33;;
3274;SDS011;1649;53.672;10.064;2022-09-30T06:20:46;40.50;;;25.77;;
3274;SDS011;1649;53.672;10.064;2022-09-30T06:23:11;40.30;;;26.50;;
3274;SDS011;1649;53.672;10.064;2022-09-30T06:25:37;41.40;;;27.23;;
3274;SDS011;1649;53.672;10.064;2022-09-30T06:28:02;35.50;;;24.90;;
3274;SDS011;1649;53.672;10.064;2022-09-30T06:30:28;37.97;;;24.97;;
3274;SDS011;1649;53.672;10.064;2022-09-30T06:32:56;41.57;;;26.10;;
3274;SDS011;1649;53.672;10.064;2022-09-30T06:35:22;37.50;;;23.80;;
3274;SDS011;1649;53.672;10.064;2022-09-30T06:37:52;38.17;;;24.60;;
3274;SDS011;1649;53.672;10.064;2022-09-30T06:40:18;38.00;;;24.83;;
3274;SDS011;1649;53.672;10.064;2022-09-30T06:42:47;38.33;;;26.07;;
3274;SDS011;1649;53.672;10.064;2022-09-30T06:45:13;39.37;;;26.93;;
3274;SDS011;1649;53.672;10.064;2022-09-30T06:47:40;35.50;;;26.10;;
3274;SDS011;1649;53.672;10.064;2022-09-30T06:50:06;41.53;;;28.80;;
3274;SDS011;1649;53.672;10.064;2022-09-30T06:52:32;40.13;;;27.73;;
3274;SDS011;1649;53.672;10.064;2022-09-30T06:54:57;39.13;;;28.10;;
3274;SDS011;1649;53.672;10.064;2022-09-30T06:57:23;45.13;;;28.87;;
3274;SDS011;1649;53.672;10.064;2022-09-30T06:59:50;38.67;;;26.60;;
3274;SDS011;1649;53.672;10.064;2022-09-30T07:02:16;39.00;;;28.60;;
3274;SDS011;1649;53.672;10.064;2022-09-30T07:04:42;44.37;;;28.27;;
3274;SDS011;1649;53.672;10.064;2022-09-30T07:07:07;40.50;;;26.43;;
3274;SDS011;1649;53.672;10.064;2022-09-30T07:09:33;38.37;;;26.47;;
3274;SDS011;1649;53.672;10.064;2022-09-30T07:11:58;37.50;;;26.30;;
3274;SDS011;1649;53.672;10.064;2022-09-30T07:14:24;41.07;;;27.23;;
3274;SDS011;1649;53.672;10.064;2022-09-30T07:16:52;47.10;;;28.63;;
3274;SDS011;1649;53.672;10.064;2022-09-30T07:19:17;42.97;;;29.20;;
3274;SDS011;1649;53.672;10.064;2022-09-30T07:21:46;42.80;;;29.10;;
3274;SDS011;1649;53.672;10.064;2022-09-30T07:24:15;40.53;;;27.77;;
3274;SDS011;1649;53.672;10.064;2022-09-30T07:26:41;38.80;;;29.37;;
3274;SDS011;1649;53.672;10.064;2022-09-30T07:29:09;39.80;;;28.27;;
3274;SDS011;1649;53.672;10.064;2022-09-30T07:31:35;39.67;;;26.70;;
3274;SDS011;1649;53.672;10.064;2022-09-30T07:34:01;35.57;;;27.40;;
3274;SDS011;1649;53.672;10.064;2022-09-30T07:36:28;35.00;;;27.37;;
3274;SDS011;1649;53.672;10.064;2022-09-30T07:38:55;32.63;;;26.07;;
3274;SDS011;1649;53.672;10.064;2022-09-30T07:41:22;31.50;;;23.97;;
3274;SDS011;1649;53.672;10.064;2022-09-30T07:43:51;27.30;;;21.80;;
3274;SDS011;1649;53.672;10.064;2022-09-30T07:46:21;29.80;;;21.50;;
3274;SDS011;1649;53.672;10.064;2022-09-30T07:48:49;25.10;;;20.50;;
3274;SDS011;1649;53.672;10.064;2022-09-30T07:53:44;26.70;;;18.43;;
3274;SDS011;1649;53.672;10.064;2022-09-30T07:56:13;24.13;;;18.33;;
3274;SDS011;1649;53.672;10.064;2022-09-30T07:58:40;24.93;;;19.33;;
3274;SDS011;1649;53.672;10.064;2022-09-30T08:01:06;21.13;;;13.67;;
3274;SDS011;1649;53.672;10.064;2022-09-30T08:03:33;17.27;;;11.97;;
3274;SDS011;1649;53.672;10.064;2022-09-30T08:06:04;17.83;;;12.30;;
3274;SDS011;1649;53.672;10.064;2022-09-30T08:08:34;20.77;;;12.53;;
3274;SDS011;1649;53.672;10.064;2022-09-30T08:11:00;16.67;;;11.50;;
3274;SDS011;1649;53.672;10.064;2022-09-30T08:13:26;14.43;;;11.00;;
3274;SDS011;1649;53.672;10.064;2022-09-30T08:15:52;16.70;;;10.70;;
3274;SDS011;1649;53.672;10.064;2022-09-30T08:18:18;12.83;;;9.27;;
3274;SDS011;1649;53.672;10.064;2022-09-30T08:20:43;14.23;;;10.70;;
3274;SDS011;1649;53.672;10.064;2022-09-30T08:23:09;13.33;;;9.77;;
3274;SDS011;1649;53.672;10.064;2022-09-30T08:25:34;14.67;;;10.90;;
3274;SDS011;1649;53.672;10.064;2022-09-30T08:28:00;12.87;;;8.33;;
3274;SDS011;1649;53.672;10.064;2022-09-30T08:30:25;10.27;;;6.93;;
3274;SDS011;1649;53.672;10.064;2022-09-30T08:32:51;10.47;;;7.57;;
3274;SDS011;1649;53.672;10.064;2022-09-30T08:35:16;10.90;;;6.43;;
3274;SDS011;1649;53.672;10.064;2022-09-30T08:37:42;10.77;;;6.43;;
3274;SDS011;1649;53.672;10.064;2022-09-30T08:40:18;10.00;;;6.10;;
3274;SDS011;1649;53.672;10.064;2022-09-30T08:45:47;7.33;;;5.37;;
3274;SDS011;1649;53.672;10.064;2022-09-30T08:48:28;8.13;;;5.67;;
3274;SDS011;1649;53.672;10.064;2022-09-30T08:51:28;7.70;;;5.27;;
3274;SDS011;1649;53.672;10.064;2022-09-30T08:54:04;10.13;;;6.20;;
3274;SDS011;1649;53.672;10.064;2022-09-30T08:56:33;11.20;;;5.80;;
3274;SDS011;1649;53.672;10.064;2022-09-30T09:01:47;7.23;;;5.07;;
3274;SDS011;1649;53.672;10.064;2022-09-30T09:04:18;7.70;;;5.23;;
3274;SDS011;1649;53.672;10.064;2022-09-30T09:06:49;7.20;;;4.77;;
3274;SDS011;1649;53.672;10.064;2022-09-30T09:09:32;6.97;;;4.50;;
3274;SDS011;1649;53.672;10.064;2022-09-30T09:20:48;6.07;;;3.63;;
3274;SDS011;1649;53.672;10.064;2022-09-30T09:23:15;6.63;;;3.70;;
3274;SDS011;1649;53.672;10.064;2022-09-30T09:25:40;5.63;;;3.43;;
3274;SDS011;1649;53.672;10.064;2022-09-30T09:28:13;7.07;;;4.20;;
3274;SDS011;1649;53.672;10.064;2022-09-30T09:30:59;6.90;;;3.60;;
3274;SDS011;1649;53.672;10.064;2022-09-30T09:33:34;8.33;;;4.60;;
3274;SDS011;1649;53.672;10.064;2022-09-30T09:39:14;7.53;;;4.40;;
3274;SDS011;1649;53.672;10.064;2022-09-30T09:41:42;6.33;;;4.00;;
3274;SDS011;1649;53.672;10.064;2022-09-30T09:44:27;6.50;;;3.93;;
3274;SDS011;1649;53.672;10.064;2022-09-30T09:47:02;8.70;;;4.30;;
3274;SDS011;1649;53.672;10.064;2022-09-30T09:54:43;9.37;;;5.30;;
3274;SDS011;1649;53.672;10.064;2022-09-30T09:57:11;7.60;;;3.93;;
3274;SDS011;1649;53.672;10.064;2022-09-30T10:02:44;6.50;;;4.00;;
3274;SDS011;1649;53.672;10.064;2022-09-30T10:05:44;7.73;;;4.77;;
3274;SDS011;1649;53.672;10.064;2022-09-30T10:08:22;10.30;;;3.93;;
3274;SDS011;1649;53.672;10.064;2022-09-30T10:10:49;6.50;;;4.07;;
3274;SDS011;1649;53.672;10.064;2022-09-30T10:13:23;6.17;;;3.90;;
3274;SDS011;1649;53.672;10.064;2022-09-30T10:15:51;12.10;;;4.10;;
3274;SDS011;1649;53.672;10.064;2022-09-30T10:20:57;14.00;;;4.10;;
3274;SDS011;1649;53.672;10.064;2022-09-30T10:23:27;8.50;;;4.20;;
3274;SDS011;1649;53.672;10.064;2022-09-30T10:28:51;5.77;;;3.13;;
3274;SDS011;1649;53.672;10.064;2022-09-30T10:31:23;6.20;;;3.87;;
3274;SDS011;1649;53.672;10.064;2022-09-30T10:34:26;7.13;;;3.90;;
3274;SDS011;1649;53.672;10.064;2022-09-30T10:36:54;7.73;;;3.90;;
3274;SDS011;1649;53.672;10.064;2022-09-30T10:39:26;6.67;;;4.30;;
3274;SDS011;1649;53.672;10.064;2022-09-30T10:42:06;8.67;;;4.33;;
3274;SDS011;1649;53.672;10.064;2022-09-30T10:44:44;9.53;;;4.70;;
3274;SDS011;1649;53.672;10.064;2022-09-30T10:47:14;7.40;;;4.93;;
3274;SDS011;1649;53.672;10.064;2022-09-30T10:49:49;6.93;;;4.50;;
3274;SDS011;1649;53.672;10.064;2022-09-30T10:52:17;9.83;;;5.00;;
3274;SDS011;1649;53.672;10.064;2022-09-30T11:05:16;6.43;;;4.00;;
3274;SDS011;1649;53.672;10.064;2022-09-30T11:07:53;7.53;;;4.53;;
3274;SDS011;1649;53.672;10.064;2022-09-30T11:16:23;5.77;;;3.73;;
3274;SDS011;1649;53.672;10.064;2022-09-30T11:19:16;8.03;;;4.27;;
3274;SDS011;1649;53.672;10.064;2022-09-30T11:24:34;9.27;;;4.67;;
3274;SDS011;1649;53.672;10.064;2022-09-30T11:30:00;7.70;;;4.00;;
3274;SDS011;1649;53.672;10.064;2022-09-30T11:35:35;7.00;;;3.17;;
3274;SDS011;1649;53.672;10.064;2022-09-30T11:46:09;6.30;;;2.80;;
3274;SDS011;1649;53.672;10.064;2022-09-30T11:51:35;5.00;;;2.13;;
3274;SDS011;1649;53.672;10.064;2022-09-30T11:56:40;6.40;;;2.60;;
3274;SDS011;1649;53.672;10.064;2022-09-30T11:59:22;4.73;;;2.37;;
3274;SDS011;1649;53.672;10.064;2022-09-30T12:01:52;6.37;;;2.73;;
3274;SDS011;1649;53.672;10.064;2022-09-30T12:04:26;5.90;;;2.57;;
3274;SDS011;1649;53.672;10.064;2022-09-30T12:07:16;6.80;;;2.50;;
3274;SDS011;1649;53.672;10.064;2022-09-30T12:09:50;5.90;;;2.60;;
3274;SDS011;1649;53.672;10.064;2022-09-30T12:12:21;4.90;;;2.63;;
3274;SDS011;1649;53.672;10.064;2022-09-30T12:14:54;6.20;;;3.43;;
3274;SDS011;1649;53.672;10.064;2022-09-30T12:19:58;6.37;;;3.50;;
3274;SDS011;1649;53.672;10.064;2022-09-30T12:22:37;5.87;;;3.80;;
3274;SDS011;1649;53.672;10.064;2022-09-30T12:25:12;6.30;;;3.80;;
3274;SDS011;1649;53.672;10.064;2022-09-30T12:28:13;5.90;;;4.20;;
3274;SDS011;1649;53.672;10.064;2022-09-30T12:31:10;6.00;;;3.93;;
3274;SDS011;1649;53.672;10.064;2022-09-30T12:40:51;6.40;;;3.17;;
3274;SDS011;1649;53.672;10.064;2022-09-30T12:43:36;6.83;;;3.60;;
3274;SDS011;1649;53.672;10.064;2022-09-30T12:48:51;6.50;;;3.20;;
3274;SDS011;1649;53.672;10.064;2022-09-30T12:51:24;5.50;;;3.07;;
3274;SDS011;1649;53.672;10.064;2022-09-30T12:54:54;6.90;;;3.53;;
3274;SDS011;1649;53.672;10.064;2022-09-30T12:56:58;7.87;;;3.63;;
3274;SDS011;1649;53.672;10.064;2022-09-30T12:59:31;6.60;;;3.53;;
3274;SDS011;1649;53.672;10.064;2022-09-30T13:01:59;6.70;;;4.10;;
3274;SDS011;1649;53.672;10.064;2022-09-30T13:04:34;7.60;;;4.00;;
3274;SDS011;1649;53.672;10.064;2022-09-30T13:09:36;6.60;;;3.90;;
3274;SDS011;1649;53.672;10.064;2022-09-30T13:12:39;11.23;;;5.30;;
3274;SDS011;1649;53.672;10.064;2022-09-30T13:20:48;8.20;;;5.80;;
3274;SDS011;1649;53.672;10.064;2022-09-30T13:26:03;8.33;;;5.53;;
3274;SDS011;1649;53.672;10.064;2022-09-30T13:28:52;10.57;;;5.80;;
3274;SDS011;1649;53.672;10.064;2022-09-30T13:34:21;9.90;;;4.87;;
3274;SDS011;1649;53.672;10.064;2022-09-30T13:42:11;6.30;;;4.17;;
3274;SDS011;1649;53.672;10.064;2022-09-30T13:47:47;8.43;;;5.17;;
3274;SDS011;1649;53.672;10.064;2022-09-30T13:50:29;7.17;;;4.43;;
3274;SDS011;1649;53.672;10.064;2022-09-30T13:52:59;7.33;;;4.97;;
3274;SDS011;1649;53.672;10.064;2022-09-30T13:55:41;6.60;;;4.83;;
3274;SDS011;1649;53.672;10.064;2022-09-30T14:03:30;7.90;;;4.63;;
3274;SDS011;1649;53.672;10.064;2022-09-30T14:06:27;7.07;;;4.67;;
3274;SDS011;1649;53.672;10.064;2022-09-30T14:09:13;7.90;;;4.77;;
3274;SDS011;1649;53.672;10.064;2022-09-30T14:15:01;8.57;;;5.60;;
3274;SDS011;1649;53.672;10.064;2022-09-30T14:20:58;9.40;;;5.90;;
3274;SDS011;1649;53.672;10.064;2022-09-30T14:24:00;7.80;;;4.93;;
3274;SDS011;1649;53.672;10.064;2022-09-30T14:32:19;7.87;;;5.67;;
3274;SDS011;1649;53.672;10.064;2022-09-30T14:34:50;7.40;;;5.40;;
3274;SDS011;1649;53.672;10.064;2022-09-30T14:37:19;9.90;;;6.60;;
3274;SDS011;1649;53.672;10.064;2022-09-30T14:39:52;9.70;;;7.00;;
3274;SDS011;1649;53.672;10.064;2022-09-30T14:42:22;10.43;;;7.77;;
3274;SDS011;1649;53.672;10.064;2022-09-30T14:44:53;12.03;;;6.97;;
3274;SDS011;1649;53.672;10.064;2022-09-30T14:47:26;9.73;;;7.80;;
3274;SDS011;1649;53.672;10.064;2022-09-30T14:49:51;10.30;;;7.33;;
3274;SDS011;1649;53.672;10.064;2022-09-30T14:52:33;8.93;;;7.67;;
3274;SDS011;1649;53.672;10.064;2022-09-30T14:55:01;9.80;;;7.40;;
3274;SDS011;1649;53.672;10.064;2022-09-30T14:57:28;10.93;;;7.70;;
3274;SDS011;1649;53.672;10.064;2022-09-30T15:00:17;9.30;;;7.20;;
3274;SDS011;1649;53.672;10.064;2022-09-30T15:02:52;10.77;;;6.60;;
3274;SDS011;1649;53.672;10.064;2022-09-30T15:05:18;9.23;;;6.90;;
3274;SDS011;1649;53.672;10.064;2022-09-30T15:07:44;9.87;;;6.90;;
3274;SDS011;1649;53.672;10.064;2022-09-30T15:10:19;12.27;;;6.90;;
3274;SDS011;1649;53.672;10.064;2022-09-30T15:12:48;11.33;;;6.37;;
3274;SDS011;1649;53.672;10.064;2022-09-30T15:15:47;9.30;;;6.93;;
3274;SDS011;1649;53.672;10.064;2022-09-30T15:20:53;10.17;;;5.93;;
3274;SDS011;1649;53.672;10.064;2022-09-30T15:23:24;8.80;;;6.70;;
3274;SDS011;1649;53.672;10.064;2022-09-30T15:25:52;11.20;;;7.60;;
3274;SDS011;1649;53.672;10.064;2022-09-30T15:28:19;8.73;;;6.40;;
3274;SDS011;1649;53.672;10.064;2022-09-30T15:30:45;9.40;;;7.20;;
3274;SDS011;1649;53.672;10.064;2022-09-30T15:33:11;10.13;;;8.10;;
3274;SDS011;1649;53.672;10.064;2022-09-30T15:35:40;10.43;;;7.67;;
3274;SDS011;1649;53.672;10.064;2022-09-30T15:38:16;12.07;;;7.17;;
3274;SDS011;1649;53.672;10.064;2022-09-30T15:40:46;11.10;;;8.00;;
3274;SDS011;1649;53.672;10.064;2022-09-30T15:43:31;9.57;;;7.90;;
3274;SDS011;1649;53.672;10.064;2022-09-30T15:46:15;9.57;;;7.57;;
3274;SDS011;1649;53.672;10.064;2022-09-30T15:48:50;9.33;;;8.10;;
3274;SDS011;1649;53.672;10.064;2022-09-30T15:51:22;10.60;;;8.67;;
3274;SDS011;1649;53.672;10.064;2022-09-30T15:53:50;11.00;;;7.40;;
3274;SDS011;1649;53.672;10.064;2022-09-30T15:59:11;10.40;;;7.53;;
3274;SDS011;1649;53.672;10.064;2022-09-30T16:01:38;11.37;;;8.03;;
3274;SDS011;1649;53.672;10.064;2022-09-30T16:09:06;10.03;;;7.30;;
3274;SDS011;1649;53.672;10.064;2022-09-30T16:11:41;12.87;;;7.93;;
3274;SDS011;1649;53.672;10.064;2022-09-30T16:14:10;9.80;;;7.80;;
3274;SDS011;1649;53.672;10.064;2022-09-30T16:16:47;10.83;;;8.97;;
3274;SDS011;1649;53.672;10.064;2022-09-30T16:19:17;15.10;;;9.23;;
3274;SDS011;1649;53.672;10.064;2022-09-30T16:21:47;11.27;;;8.40;;
3274;SDS011;1649;53.672;10.064;2022-09-30T16:27:18;12.60;;;9.00;;
3274;SDS011;1649;53.672;10.064;2022-09-30T16:29:50;9.93;;;8.73;;
3274;SDS011;1649;53.672;10.064;2022-09-30T16:32:16;11.43;;;8.90;;
3274;SDS011;1649;53.672;10.064;2022-09-30T16:34:41;12.03;;;9.90;;
3274;SDS011;1649;53.672;10.064;2022-09-30T16:37:10;14.47;;;9.90;;
3274;SDS011;1649;53.672;10.064;2022-09-30T16:39:42;10.27;;;8.00;;
3274;SDS011;1649;53.672;10.064;2022-09-30T16:42:11;12.03;;;9.40;;
3274;SDS011;1649;53.672;10.064;2022-09-30T16:44:38;12.27;;;10.03;;
3274;SDS011;1649;53.672;10.064;2022-09-30T16:47:03;15.20;;;10.40;;
3274;SDS011;1649;53.672;10.064;2022-09-30T16:49:29;15.47;;;11.53;;
3274;SDS011;1649;53.672;10.064;2022-09-30T16:51:55;15.70;;;10.73;;
3274;SDS011;1649;53.672;10.064;2022-09-30T16:54:20;13.97;;;12.07;;
3274;SDS011;1649;53.672;10.064;2022-09-30T16:56:46;13.53;;;10.83;;
3274;SDS011;1649;53.672;10.064;2022-09-30T16:59:12;12.33;;;9.50;;
3274;SDS011;1649;53.672;10.064;2022-09-30T17:01:39;13.50;;;10.10;;
3274;SDS011;1649;53.672;10.064;2022-09-30T17:04:05;12.97;;;9.70;;
3274;SDS011;1649;53.672;10.064;2022-09-30T17:06:31;12.60;;;10.93;;
3274;SDS011;1649;53.672;10.064;2022-09-30T17:08:58;12.20;;;10.67;;
3274;SDS011;1649;53.672;10.064;2022-09-30T17:11:27;19.10;;;10.57;;
3274;SDS011;1649;53.672;10.064;2022-09-30T17:13:55;15.10;;;10.57;;
3274;SDS011;1649;53.672;10.064;2022-09-30T17:16:21;13.83;;;11.00;;
3274;SDS011;1649;53.672;10.064;2022-09-30T17:18:47;13.35;;;11.30;;
3274;SDS011;1649;53.672;10.064;2022-09-30T17:21:15;14.50;;;12.27;;
3274;SDS011;1649;53.672;10.064;2022-09-30T17:23:42;18.50;;;11.60;;
3274;SDS011;1649;53.672;10.064;2022-09-30T17:26:07;16.57;;;12.47;;
3274;SDS011;1649;53.672;10.064;2022-09-30T17:28:34;14.43;;;11.10;;
3274;SDS011;1649;53.672;10.064;2022-09-30T17:30:59;15.70;;;12.20;;
3274;SDS011;1649;53.672;10.064;2022-09-30T17:33:28;14.83;;;12.13;;
3274;SDS011;1649;53.672;10.064;2022-09-30T17:35:59;14.60;;;12.43;;
3274;SDS011;1649;53.672;10.064;2022-09-30T17:38:27;16.07;;;12.07;;
3274;SDS011;1649;53.672;10.064;2022-09-30T17:40:53;17.13;;;13.30;;
3274;SDS011;1649;53.672;10.064;2022-09-30T17:43:38;24.20;;;17.27;;
3274;SDS011;1649;53.672;10.064;2022-09-30T17:46:03;21.40;;;16.07;;
3274;SDS011;1649;53.672;10.064;2022-09-30T17:48:29;21.67;;;15.87;;
3274;SDS011;1649;53.672;10.064;2022-09-30T17:50:55;22.10;;;17.17;;
3274;SDS011;1649;53.672;10.064;2022-09-30T17:53:21;22.00;;;16.53;;
3274;SDS011;1649;53.672;10.064;2022-09-30T17:55:47;20.87;;;16.73;;
3274;SDS011;1649;53.672;10.064;2022-09-30T17:58:24;18.43;;;15.63;;
3274;SDS011;1649;53.672;10.064;2022-09-30T18:00:49;19.50;;;16.10;;
3274;SDS011;1649;53.672;10.064;2022-09-30T18:03:15;15.17;;;13.57;;
3274;SDS011;1649;53.672;10.064;2022-09-30T18:05:40;17.00;;;14.37;;
3274;SDS011;1649;53.672;10.064;2022-09-30T18:08:10;18.80;;;15.00;;
3274;SDS011;1649;53.672;10.064;2022-09-30T18:10:36;18.00;;;15.27;;